Time;durP1;ratioP1;P1;durP2;ratioP2;P2;SDS_P1;SDS_P2;PMS_P1;PMS_P2;Temp;Humidity;BMP_temperature;BMP_pressure;BME280_temperature;BME280_humidity;BME280_pressure;Samples;Min_cycle;Max_cycle;Signal;HPM_P1;HPM_P2
2022/11/10 00:01:14;;;;;;;;;;;9.80;82.40;;;-151.14;100.00;62537.16;5091011;28;19920;-81
2022/11/10 00:04:00;;;;;;;;;;;9.80;82.30;;;-151.14;100.00;62537.16;5073022;28;19920;-81
2022/11/10 00:06:46;;;;;;;;;;;9.80;82.30;;;-151.14;100.00;62537.16;5072634;28;19920;-81
2022/11/10 00:09:33;;;;;;;;;;;9.80;82.40;;;-151.14;100.00;62537.16;5073134;28;19920;-82
2022/11/10 00:12:19;;;;;;;;;;;9.80;82.40;;;-151.14;100.00;62537.16;5073074;28;19927;-81
2022/11/10 00:18:13;;;;;;;;;;;9.80;82.30;;;-151.14;100.00;62537.16;5072962;28;19927;-82
2022/11/10 00:21:03;;;;;;;;;;;9.80;82.30;;;-151.14;100.00;62537.16;5090841;28;20113;-81
2022/11/10 00:23:49;;;;;;;;;;;9.80;82.30;;;-151.14;100.00;62537.16;5078680;28;19926;-81
2022/11/10 00:26:36;;;;;;;;;;;9.80;82.40;;;-151.14;100.00;62537.16;5092759;28;19920;-82
2022/11/10 00:29:22;;;;;;;;;;;9.80;82.40;;;-151.14;100.00;62537.16;5093060;28;19926;-81
2022/11/10 00:32:09;;;;;;;;;;;9.80;82.40;;;-151.14;100.00;62537.16;5111054;28;19920;-81
2022/11/10 00:34:57;;;;;;;;;;;9.80;82.40;;;-151.14;100.00;62537.16;5112559;28;19926;-82
2022/11/10 00:37:43;;;;;;;;;;;9.80;82.30;;;-151.14;100.00;62537.16;5096242;28;19926;-81
2022/11/10 00:40:30;;;;;;;;;;;9.80;82.40;;;-151.14;100.00;62537.16;5096257;28;19926;-81
2022/11/10 00:43:16;;;;;;;;;;;9.80;82.40;;;-151.14;100.00;62537.16;5114455;28;19920;-81
2022/11/10 00:46:03;;;;;;;;;;;9.80;82.40;;;-151.14;100.00;62537.16;5075682;28;19921;-82
2022/11/10 00:48:50;;;;;;;;;;;9.70;82.40;;;-151.14;100.00;62537.16;5092941;28;19920;-81
2022/11/10 00:51:38;;;;;;;;;;;9.80;82.40;;;-151.14;100.00;62537.16;5092815;28;19920;-81
2022/11/10 00:54:24;;;;;;;;;;;9.80;82.40;;;-151.14;100.00;62537.16;5093892;28;19926;-82
2022/11/10 00:57:11;;;;;;;;;;;9.80;82.40;;;-151.14;100.00;62537.16;5092635;28;19920;-81
2022/11/10 00:59:57;;;;;;;;;;;9.80;82.40;;;-151.14;100.00;62537.16;5093678;28;19920;-81
2022/11/10 01:02:43;;;;;;;;;;;9.80;82.30;;;-151.14;100.00;62537.16;5092612;28;20234;-81
2022/11/10 01:05:30;;;;;;;;;;;9.80;82.40;;;-151.14;100.00;62537.16;5092050;28;19920;-81
2022/11/10 01:08:18;;;;;;;;;;;9.80;82.40;;;-151.14;100.00;62537.16;5092343;28;19920;-81
2022/11/10 01:11:05;;;;;;;;;;;9.80;82.40;;;-151.14;100.00;62537.16;5092253;28;20237;-81
2022/11/10 01:13:52;;;;;;;;;;;9.80;82.40;;;-151.14;100.00;62537.16;5093252;28;19934;-81
2022/11/10 01:16:39;;;;;;;;;;;9.80;82.40;;;-151.14;100.00;62537.16;5093054;28;19920;-82
2022/11/10 01:19:25;;;;;;;;;;;9.70;82.40;;;-151.14;100.00;62537.16;5078694;28;19919;-81
2022/11/10 01:22:12;;;;;;;;;;;9.80;82.40;;;-151.14;100.00;62537.16;5095514;28;19932;-81
2022/11/10 01:24:59;;;;;;;;;;;9.70;82.40;;;-151.14;100.00;62537.16;5113276;28;20096;-82
2022/11/10 01:27:46;;;;;;;;;;;9.70;82.40;;;-151.14;100.00;62537.16;5113661;28;19920;-81
2022/11/10 01:30:32;;;;;;;;;;;9.70;82.30;;;-151.14;100.00;62537.16;5095545;28;19926;-81
2022/11/10 01:33:19;;;;;;;;;;;9.70;82.40;;;-151.14;100.00;62537.16;5095396;28;20118;-81
2022/11/10 01:36:06;;;;;;;;;;;9.70;82.40;;;-151.14;100.00;62537.16;5079847;28;19920;-81
2022/11/10 01:38:53;;;;;;;;;;;9.70;82.40;;;-151.14;100.00;62537.16;5093139;28;19926;-81
2022/11/10 01:41:40;;;;;;;;;;;9.70;82.40;;;-151.14;100.00;62537.16;5094197;28;20092;-81
2022/11/10 01:44:27;;;;;;;;;;;9.70;82.40;;;-151.14;100.00;62537.16;5113186;28;19921;-81
2022/11/10 01:47:13;;;;;;;;;;;9.70;82.50;;;-151.14;100.00;62537.16;5112580;28;19920;-81
2022/11/10 01:49:59;;;;;;;;;;;9.70;82.60;;;-151.14;100.00;62537.16;5095327;28;19920;-81
2022/11/10 01:52:47;;;;;;;;;;;9.70;82.50;;;-151.14;100.00;62537.16;5113295;28;19920;-81
2022/11/10 01:55:34;;;;;;;;;;;9.70;82.60;;;-151.14;100.00;62537.16;5094766;28;19919;-81
2022/11/10 01:58:24;;;;;;;;;;;9.70;82.50;;;-151.14;100.00;62537.16;5113170;28;19920;-81
2022/11/10 02:01:11;;;;;;;;;;;9.70;82.50;;;-151.14;100.00;62537.16;5113078;28;19920;-81
2022/11/10 02:03:58;;;;;;;;;;;9.70;82.40;;;-151.14;100.00;62537.16;5094874;28;19926;-81
2022/11/10 02:06:46;;;;;;;;;;;9.70;82.50;;;-151.14;100.00;62537.16;5094786;28;19926;-81
2022/11/10 02:09:32;;;;;;;;;;;9.70;82.60;;;-151.14;100.00;62537.16;5095598;28;19926;-81
2022/11/10 02:12:35;;;;;;;;;;;9.70;82.60;;;-151.14;100.00;62537.16;5092684;28;19928;-81
2022/11/10 02:15:24;;;;;;;;;;;9.70;82.40;;;-151.14;100.00;62537.16;5074089;28;20112;-82
2022/11/10 02:18:10;;;;;;;;;;;9.70;82.40;;;-151.14;100.00;62537.16;5074669;28;20111;-81
2022/11/10 02:20:58;;;;;;;;;;;9.70;82.50;;;-151.14;100.00;62537.16;5092377;28;19934;-82
2022/11/10 02:23:49;;;;;;;;;;;9.70;82.50;;;-151.14;100.00;62537.16;5074363;28;19920;-81
2022/11/10 02:26:36;;;;;;;;;;;9.70;82.50;;;-151.14;100.00;62537.16;5092097;28;19934;-81
2022/11/10 02:29:22;;;;;;;;;;;9.70;82.50;;;-151.14;100.00;62537.16;5074444;28;20212;-81
2022/11/10 02:32:09;;;;;;;;;;;9.70;82.40;;;-151.14;100.00;62537.16;5074307;28;19920;-81
2022/11/10 02:34:55;;;;;;;;;;;9.70;82.40;;;-151.14;100.00;62537.16;5091698;28;20119;-81
2022/11/10 02:37:43;;;;;;;;;;;9.70;82.40;;;-151.14;100.00;62537.16;5074300;28;19926;-82
2022/11/10 02:40:29;;;;;;;;;;;9.70;82.50;;;-151.14;100.00;62537.16;5074257;28;19920;-81
2022/11/10 02:43:16;;;;;;;;;;;9.70;82.50;;;-151.14;100.00;62537.16;5074149;28;19934;-81
2022/11/10 02:46:02;;;;;;;;;;;9.70;82.50;;;-151.14;100.00;62537.16;5073950;28;19920;-81
2022/11/10 02:48:49;;;;;;;;;;;9.70;82.60;;;-151.14;100.00;62537.16;5074242;28;19926;-81
2022/11/10 02:51:36;;;;;;;;;;;9.70;82.50;;;-151.14;100.00;62537.16;5092025;28;19920;-81
2022/11/10 02:54:24;;;;;;;;;;;9.60;82.40;;;-151.14;100.00;62537.16;5091885;28;20204;-81
2022/11/10 02:57:11;;;;;;;;;;;9.70;82.60;;;-151.14;100.00;62537.16;5091271;28;19926;-81
2022/11/10 02:59:57;;;;;;;;;;;9.70;82.60;;;-151.14;100.00;62537.16;5074110;28;19920;-81
2022/11/10 03:02:44;;;;;;;;;;;9.60;82.40;;;-151.14;100.00;62537.16;5108956;28;19919;-81
2022/11/10 03:05:33;;;;;;;;;;;9.70;82.50;;;-151.14;100.00;62537.16;5093065;28;20479;-81
2022/11/10 03:08:19;;;;;;;;;;;9.70;82.50;;;-151.14;100.00;62537.16;5112043;28;19920;-81
2022/11/10 03:11:07;;;;;;;;;;;9.70;82.50;;;-151.14;100.00;62537.16;5110558;28;19926;-81
2022/11/10 03:13:54;;;;;;;;;;;9.70;82.50;;;-151.14;100.00;62537.16;5104311;28;19930;-81
2022/11/10 03:16:41;;;;;;;;;;;9.60;82.30;;;-151.14;100.00;62537.16;5085848;28;19926;-81
2022/11/10 03:19:27;;;;;;;;;;;9.70;82.50;;;-151.14;100.00;62537.16;5108833;28;19919;-81
2022/11/10 03:22:14;;;;;;;;;;;9.70;82.50;;;-151.14;100.00;62537.16;5111913;28;19928;-81
2022/11/10 03:25:00;;;;;;;;;;;9.70;82.60;;;-151.14;100.00;62537.16;5111556;28;19934;-81
2022/11/10 03:27:48;;;;;;;;;;;9.70;82.60;;;-151.14;100.00;62537.16;5093547;28;20260;-81
2022/11/10 03:30:35;;;;;;;;;;;9.70;82.60;;;-151.14;100.00;62537.16;5089582;28;19926;-81
2022/11/10 03:33:21;;;;;;;;;;;9.60;82.50;;;-151.14;100.00;62537.16;5104561;28;19919;-81
2022/11/10 03:36:08;;;;;;;;;;;9.60;82.60;;;-151.14;100.00;62537.16;5092416;28;20114;-82
2022/11/10 03:38:55;;;;;;;;;;;9.60;82.60;;;-151.14;100.00;62537.16;5090756;28;19920;-82
2022/11/10 03:41:42;;;;;;;;;;;9.60;82.50;;;-151.14;100.00;62537.16;5091225;28;19920;-81
2022/11/10 03:44:30;;;;;;;;;;;9.60;82.60;;;-151.14;100.00;62537.16;5091220;28;19927;-81
2022/11/10 03:47:17;;;;;;;;;;;9.60;82.60;;;-151.14;100.00;62537.16;5080129;28;19927;-81
2022/11/10 03:50:03;;;;;;;;;;;9.70;82.80;;;-151.14;100.00;62537.16;5111502;28;19926;-81
2022/11/10 03:52:49;;;;;;;;;;;9.60;83.40;;;-151.14;100.00;62537.16;5111531;28;19924;-81
2022/11/10 03:55:36;;;;;;;;;;;9.60;82.60;;;-151.14;100.00;62537.16;5111055;28;19919;-81
2022/11/10 03:58:23;;;;;;;;;;;9.60;82.70;;;-151.14;100.00;62537.16;5111485;28;19926;-81
2022/11/10 04:01:11;;;;;;;;;;;9.60;82.60;;;-151.14;100.00;62537.16;5093266;28;19926;-81
2022/11/10 04:03:57;;;;;;;;;;;9.60;82.70;;;-151.14;100.00;62537.16;5109994;28;19920;-81
2022/11/10 04:09:50;;;;;;;;;;;9.60;82.60;;;-151.14;100.00;62537.16;5086514;28;19920;-81
2022/11/10 04:15:43;;;;;;;;;;;9.60;82.70;;;-151.14;100.00;62537.16;5094315;28;19924;-81
2022/11/10 04:18:31;;;;;;;;;;;9.60;82.80;;;-151.14;100.00;62537.16;5094462;28;19920;-81
2022/11/10 04:21:18;;;;;;;;;;;9.60;82.70;;;-151.14;100.00;62537.16;5076430;28;19920;-81
2022/11/10 04:24:05;;;;;;;;;;;9.60;82.70;;;-151.14;100.00;62537.16;5076341;28;20123;-81
2022/11/10 04:26:51;;;;;;;;;;;9.60;82.70;;;-151.14;100.00;62537.16;5076100;28;19926;-81
2022/11/10 04:29:38;;;;;;;;;;;9.60;82.80;;;-151.14;100.00;62537.16;5076428;28;19927;-81
2022/11/10 04:32:24;;;;;;;;;;;9.60;82.90;;;-151.14;100.00;62537.16;5076453;28;19920;-81
2022/11/10 04:35:12;;;;;;;;;;;9.60;82.80;;;-151.14;100.00;62537.16;5093778;28;19926;-81
2022/11/10 04:37:58;;;;;;;;;;;9.60;82.80;;;-151.14;100.00;62537.16;5094227;28;19926;-81
2022/11/10 04:40:45;;;;;;;;;;;9.60;82.80;;;-151.14;100.00;62537.16;5094214;28;19920;-81
2022/11/10 04:43:31;;;;;;;;;;;9.60;82.90;;;-151.14;100.00;62537.16;5093923;28;19942;-81
2022/11/10 04:46:24;;;;;;;;;;;9.60;82.90;;;-151.14;100.00;62537.16;5075826;28;19920;-81
2022/11/10 04:49:11;;;;;;;;;;;9.60;82.90;;;-151.14;100.00;62537.16;5075947;28;19927;-81
2022/11/10 04:51:59;;;;;;;;;;;9.60;82.80;;;-151.14;100.00;62537.16;5094055;28;19920;-81
2022/11/10 04:54:45;;;;;;;;;;;9.60;82.90;;;-151.14;100.00;62537.16;5075574;28;19927;-81
2022/11/10 04:57:32;;;;;;;;;;;9.60;82.90;;;-151.14;100.00;62537.16;5075903;28;19920;-81
2022/11/10 05:00:19;;;;;;;;;;;9.60;82.80;;;-151.14;100.00;62537.16;5093984;28;19977;-81
2022/11/10 05:03:07;;;;;;;;;;;9.60;82.90;;;-151.14;100.00;62537.16;5096647;28;19920;-81
2022/11/10 05:05:53;;;;;;;;;;;9.50;82.90;;;-151.14;100.00;62537.16;5095419;28;19920;-81
2022/11/10 05:08:41;;;;;;;;;;;9.50;83.00;;;-151.14;100.00;62537.16;5095720;28;19919;-82
2022/11/10 05:11:28;;;;;;;;;;;9.60;83.00;;;-151.14;100.00;62537.16;5095926;28;19920;-81
2022/11/10 05:14:14;;;;;;;;;;;9.60;82.90;;;-151.14;100.00;62537.16;5095576;28;19920;-81
2022/11/10 05:17:01;;;;;;;;;;;9.50;82.90;;;-151.14;100.00;62537.16;5113604;28;20227;-81
2022/11/10 05:19:48;;;;;;;;;;;9.50;82.90;;;-151.14;100.00;62537.16;5095709;28;19943;-81
2022/11/10 05:22:34;;;;;;;;;;;9.50;83.00;;;-151.14;100.00;62537.16;5095176;28;20229;-81
2022/11/10 05:25:22;;;;;;;;;;;9.50;82.90;;;-151.14;100.00;62537.16;5113361;28;20119;-81
2022/11/10 05:28:09;;;;;;;;;;;9.50;83.00;;;-151.14;100.00;62537.16;5113690;28;19919;-81
2022/11/10 05:30:56;;;;;;;;;;;9.60;83.10;;;-151.14;100.00;62537.16;5113843;28;19920;-81
2022/11/10 05:33:42;;;;;;;;;;;9.50;83.00;;;-151.14;100.00;62537.16;5113461;28;19919;-81
2022/11/10 05:36:29;;;;;;;;;;;9.50;82.90;;;-151.14;100.00;62537.16;5095327;28;19968;-81
2022/11/10 05:39:15;;;;;;;;;;;9.50;83.10;;;-151.14;100.00;62537.16;5113664;28;19934;-82
2022/11/10 05:42:03;;;;;;;;;;;9.50;83.10;;;-151.14;100.00;62537.16;5113427;28;20110;-81
2022/11/10 05:44:50;;;;;;;;;;;9.50;83.10;;;-151.14;100.00;62537.16;5113118;28;19920;-81
2022/11/10 05:47:37;;;;;;;;;;;9.50;83.00;;;-151.14;100.00;62537.16;5095216;28;20111;-81
2022/11/10 05:50:23;;;;;;;;;;;9.50;82.90;;;-151.14;100.00;62537.16;5095428;28;19920;-81
2022/11/10 05:53:10;;;;;;;;;;;9.50;83.00;;;-151.14;100.00;62537.16;5095188;28;19926;-81
2022/11/10 05:55:57;;;;;;;;;;;9.50;83.10;;;-151.14;100.00;62537.16;5113205;28;20235;-81
2022/11/10 05:58:45;;;;;;;;;;;9.50;83.00;;;-151.14;100.00;62537.16;5095125;28;19919;-81
2022/11/10 06:01:32;;;;;;;;;;;9.50;83.00;;;-151.14;100.00;62537.16;5095103;28;20186;-81
2022/11/10 06:04:18;;;;;;;;;;;9.50;82.90;;;-151.14;100.00;62537.16;5112973;28;19919;-81
2022/11/10 06:07:06;;;;;;;;;;;9.50;83.00;;;-151.14;100.00;62537.16;5112983;28;19919;-81
2022/11/10 06:09:53;;;;;;;;;;;9.50;82.90;;;-151.14;100.00;62537.16;5113177;28;19926;-81
2022/11/10 06:12:40;;;;;;;;;;;9.50;82.90;;;-151.14;100.00;62537.16;5094903;28;19926;-81
2022/11/10 06:15:28;;;;;;;;;;;9.50;82.90;;;-151.14;100.00;62537.16;5094447;28;19920;-81
2022/11/10 06:18:14;;;;;;;;;;;9.50;82.90;;;-151.14;100.00;62537.16;5094803;28;19920;-81
2022/11/10 06:21:01;;;;;;;;;;;9.50;82.90;;;-151.14;100.00;62537.16;5094951;28;20119;-81
2022/11/10 06:23:47;;;;;;;;;;;9.50;82.90;;;-151.14;100.00;62537.16;5094629;28;19920;-81
2022/11/10 06:26:33;;;;;;;;;;;9.50;82.90;;;-151.14;100.00;62537.16;5090899;28;20115;-81
2022/11/10 06:29:20;;;;;;;;;;;9.50;82.90;;;-151.14;100.00;62537.16;5092303;28;19920;-81
2022/11/10 06:32:08;;;;;;;;;;;9.50;82.80;;;-151.14;100.00;62537.16;5092255;28;20212;-81
2022/11/10 06:34:54;;;;;;;;;;;9.50;82.90;;;-151.14;100.00;62537.16;5090607;28;19938;-81
2022/11/10 06:37:41;;;;;;;;;;;9.50;82.80;;;-151.14;100.00;62537.16;5092280;28;19928;-81
2022/11/10 06:40:27;;;;;;;;;;;9.50;82.70;;;-151.14;100.00;62537.16;5091073;28;19921;-81
2022/11/10 06:43:14;;;;;;;;;;;9.50;82.70;;;-151.14;100.00;62537.16;5092028;28;19920;-81
2022/11/10 06:46:01;;;;;;;;;;;9.50;82.80;;;-151.14;100.00;62537.16;5090740;28;19920;-81
2022/11/10 06:48:49;;;;;;;;;;;9.50;82.70;;;-151.14;100.00;62537.16;5092256;28;20119;-81
2022/11/10 06:51:36;;;;;;;;;;;9.50;82.60;;;-151.14;100.00;62537.16;5094215;28;20284;-81
2022/11/10 06:54:23;;;;;;;;;;;9.50;82.70;;;-151.14;100.00;62537.16;5112416;28;19926;-81
2022/11/10 06:57:09;;;;;;;;;;;9.50;82.70;;;-151.14;100.00;62537.16;5092112;28;19920;-81
2022/11/10 06:59:56;;;;;;;;;;;9.50;82.60;;;-151.14;100.00;62537.16;5092038;28;19927;-81
2022/11/10 07:02:43;;;;;;;;;;;9.50;82.70;;;-151.14;100.00;62537.16;5073914;28;20230;-81
2022/11/10 07:05:30;;;;;;;;;;;9.50;82.80;;;-151.14;100.00;62537.16;5091489;28;19926;-81
2022/11/10 07:08:17;;;;;;;;;;;9.50;82.60;;;-151.14;100.00;62537.16;5091690;28;20203;-81
2022/11/10 07:11:04;;;;;;;;;;;9.50;82.80;;;-151.14;100.00;62537.16;5102452;28;19926;-81
2022/11/10 07:13:51;;;;;;;;;;;9.50;82.70;;;-151.14;100.00;62537.16;5093748;28;19920;-81
2022/11/10 07:16:37;;;;;;;;;;;9.50;82.50;;;-151.14;100.00;62537.16;5111783;28;19926;-82
2022/11/10 07:19:24;;;;;;;;;;;9.50;82.50;;;-151.14;100.00;62537.16;5112116;28;20123;-81
2022/11/10 07:22:12;;;;;;;;;;;9.50;82.40;;;-151.14;100.00;62537.16;5093789;28;19926;-81
2022/11/10 07:24:59;;;;;;;;;;;9.50;82.60;;;-151.14;100.00;62537.16;5093404;28;19926;-81
2022/11/10 07:27:45;;;;;;;;;;;9.50;82.60;;;-151.14;100.00;62537.16;5091549;28;19927;-82
2022/11/10 07:30:33;;;;;;;;;;;9.60;82.60;;;-151.14;100.00;62537.16;5091649;28;19935;-81
2022/11/10 07:33:20;;;;;;;;;;;9.50;82.70;;;-151.14;100.00;62537.16;5091248;28;19927;-81
2022/11/10 07:36:07;;;;;;;;;;;9.50;82.50;;;-151.14;100.00;62537.16;5091104;28;19920;-81
2022/11/10 07:38:55;;;;;;;;;;;9.60;82.50;;;-151.14;100.00;62537.16;5091373;28;19928;-81
2022/11/10 07:41:41;;;;;;;;;;;9.60;82.60;;;-151.14;100.00;62537.16;5107249;28;19920;-81
2022/11/10 07:44:28;;;;;;;;;;;9.50;82.50;;;-151.14;100.00;62537.16;5090281;28;20212;-81
2022/11/10 07:47:14;;;;;;;;;;;9.60;82.30;;;-151.14;100.00;62537.16;5107016;28;19926;-81
2022/11/10 07:50:01;;;;;;;;;;;9.60;82.40;;;-151.14;100.00;62537.16;5091490;28;19921;-81
2022/11/10 07:52:48;;;;;;;;;;;9.60;82.40;;;-151.14;100.00;62537.16;5091312;28;19920;-82
2022/11/10 07:55:36;;;;;;;;;;;9.60;82.30;;;-151.14;100.00;62537.16;5090841;28;20204;-82
2022/11/10 07:58:23;;;;;;;;;;;9.60;82.30;;;-151.14;100.00;62537.16;5091194;28;19920;-81
2022/11/10 08:01:10;;;;;;;;;;;9.60;82.30;;;-151.14;100.00;62537.16;5106860;28;19920;-81
2022/11/10 08:03:57;;;;;;;;;;;9.60;82.30;;;-151.14;100.00;62537.16;5106445;28;19920;-81
2022/11/10 08:06:43;;;;;;;;;;;9.60;82.20;;;-151.14;100.00;62537.16;5106616;28;19927;-82
2022/11/10 08:09:36;;;;;;;;;;;9.60;82.20;;;-151.14;100.00;62537.16;5091352;28;19920;-81
2022/11/10 08:12:24;;;;;;;;;;;9.60;82.20;;;-151.14;100.00;62537.16;5106615;28;19942;-81
2022/11/10 08:15:10;;;;;;;;;;;9.60;82.30;;;-151.14;100.00;62537.16;5106374;28;19920;-81
2022/11/10 08:18:00;;;;;;;;;;;9.60;82.30;;;-151.14;100.00;62537.16;5090882;28;19920;-81
2022/11/10 08:20:47;;;;;;;;;;;9.60;82.10;;;-151.14;100.00;62537.16;5106691;28;20121;-81
2022/11/10 08:23:34;;;;;;;;;;;9.60;82.10;;;-151.14;100.00;62537.16;5090533;28;19927;-81
2022/11/10 08:26:20;;;;;;;;;;;9.60;82.20;;;-151.14;100.00;62537.16;5090664;28;19920;-81
2022/11/10 08:29:08;;;;;;;;;;;9.60;82.10;;;-151.14;100.00;62537.16;5090812;28;20226;-81
2022/11/10 08:31:55;;;;;;;;;;;9.60;82.10;;;-151.14;100.00;62537.16;5072877;28;19920;-81
2022/11/10 08:34:41;;;;;;;;;;;9.60;82.00;;;-151.14;100.00;62537.16;5072306;28;19927;-82
2022/11/10 08:37:28;;;;;;;;;;;9.60;82.10;;;-151.14;100.00;62537.16;5072832;28;19920;-81
2022/11/10 08:40:15;;;;;;;;;;;9.60;82.20;;;-151.14;100.00;62537.16;5072837;28;19926;-81
2022/11/10 08:43:02;;;;;;;;;;;9.60;82.30;;;-151.14;100.00;62537.16;5072602;28;20234;-81
2022/11/10 08:45:49;;;;;;;;;;;9.60;82.20;;;-151.14;100.00;62537.16;5090422;28;19920;-81
2022/11/10 08:48:36;;;;;;;;;;;9.60;82.20;;;-151.14;100.00;62537.16;5072684;28;19927;-81
2022/11/10 08:51:22;;;;;;;;;;;9.60;82.10;;;-151.14;100.00;62537.16;5090585;28;19920;-81
2022/11/10 08:54:09;;;;;;;;;;;9.70;82.10;;;-151.14;100.00;62537.16;5090317;28;19920;-81
2022/11/10 08:56:56;;;;;;;;;;;9.60;82.10;;;-151.14;100.00;62537.16;5110837;28;19920;-82
2022/11/10 08:59:42;;;;;;;;;;;9.60;82.10;;;-151.14;100.00;62537.16;5114303;28;19926;-81
2022/11/10 09:02:30;;;;;;;;;;;9.70;82.20;;;-151.14;100.00;62537.16;5096104;28;19924;-81
2022/11/10 09:05:17;;;;;;;;;;;9.70;82.10;;;-151.14;100.00;62537.16;5095664;28;20276;-82
2022/11/10 09:08:03;;;;;;;;;;;9.70;82.00;;;-151.14;100.00;62537.16;5113893;28;19920;-81
2022/11/10 09:10:50;;;;;;;;;;;9.80;81.90;;;-151.14;100.00;62537.16;5095911;28;19926;-81
2022/11/10 09:13:37;;;;;;;;;;;9.80;81.80;;;-151.14;100.00;62537.16;5113857;28;19920;-81
2022/11/10 09:16:23;;;;;;;;;;;9.70;81.70;;;-151.14;100.00;62537.16;5113625;28;20124;-81
2022/11/10 09:19:12;;;;;;;;;;;9.80;81.70;;;-151.14;100.00;62537.16;5095876;28;19942;-81
2022/11/10 09:21:58;;;;;;;;;;;9.80;81.60;;;-151.14;100.00;62537.16;5113959;28;19919;-81
2022/11/10 09:24:45;;;;;;;;;;;9.80;81.50;;;-151.14;100.00;62537.16;5092795;28;19920;-81
2022/11/10 09:27:31;;;;;;;;;;;9.80;81.40;;;-151.14;100.00;62537.16;5093405;28;19927;-81
2022/11/10 09:30:18;;;;;;;;;;;9.80;81.30;;;-151.14;100.00;62537.16;5075615;28;19927;-81
2022/11/10 09:33:05;;;;;;;;;;;9.80;81.30;;;-151.14;100.00;62537.16;5093523;28;19926;-81
2022/11/10 09:35:56;;;;;;;;;;;9.90;81.20;;;-151.14;100.00;62537.16;5075167;28;19942;-81
2022/11/10 09:38:43;;;;;;;;;;;10.00;81.30;;;-151.14;100.00;62537.16;5093154;28;19926;-81
2022/11/10 09:41:30;;;;;;;;;;;10.00;81.20;;;-151.14;100.00;62537.16;5093269;28;19920;-81
2022/11/10 09:44:19;;;;;;;;;;;10.00;81.30;;;-151.14;100.00;62537.16;5092817;28;19920;-81
2022/11/10 09:47:09;;;;;;;;;;;10.00;81.00;;;-151.14;100.00;62537.16;5092988;28;19942;-81
2022/11/10 09:49:57;;;;;;;;;;;10.00;81.00;;;-151.14;100.00;62537.16;5075056;28;20119;-80
2022/11/10 09:52:45;;;;;;;;;;;10.10;81.10;;;-151.14;100.00;62537.16;5075230;28;19958;-81
2022/11/10 09:55:36;;;;;;;;;;;10.10;81.00;;;-151.14;100.00;62537.16;5092384;28;19926;-81
2022/11/10 09:58:23;;;;;;;;;;;10.10;81.00;;;-151.14;100.00;62537.16;5099600;28;19919;-81
2022/11/10 10:01:25;;;;;;;;;;;10.10;80.90;;;-151.14;100.00;62537.16;5113168;28;19926;-81
2022/11/10 10:04:16;;;;;;;;;;;10.20;80.80;;;-151.14;100.00;62537.16;5112829;28;19920;-81
2022/11/10 10:07:06;;;;;;;;;;;10.20;80.90;;;-151.14;100.00;62537.16;5093844;28;20309;-81
2022/11/10 10:09:58;;;;;;;;;;;10.20;80.90;;;-151.14;100.00;62537.16;5095151;28;19926;-81
2022/11/10 10:12:57;;;;;;;;;;;10.20;80.80;;;-151.14;100.00;62537.16;5095126;28;19920;-82
2022/11/10 10:15:47;;;;;;;;;;;10.20;80.80;;;-151.14;100.00;62537.16;5075319;28;19926;-81
2022/11/10 10:18:36;;;;;;;;;;;10.20;80.80;;;-151.14;100.00;62537.16;5075957;28;20236;-81
2022/11/10 10:21:32;;;;;;;;;;;10.20;80.90;;;-151.14;100.00;62537.16;5093611;28;19926;-81
2022/11/10 10:24:19;;;;;;;;;;;10.20;80.90;;;-151.14;100.00;62537.16;5092319;28;19926;-81
2022/11/10 10:27:10;;;;;;;;;;;10.20;81.00;;;-151.14;100.00;62537.16;5092572;28;20112;-81
2022/11/10 10:29:57;;;;;;;;;;;10.20;81.10;;;-151.14;100.00;62537.16;5074589;28;19927;-81
2022/11/10 10:32:43;;;;;;;;;;;10.20;81.10;;;-151.14;100.00;62537.16;5092476;28;19928;-81
2022/11/10 10:35:30;;;;;;;;;;;10.20;81.10;;;-151.14;100.00;62537.16;5073952;28;19926;-81
2022/11/10 10:38:20;;;;;;;;;;;10.20;81.20;;;-151.14;100.00;62537.16;5075437;28;19926;-81
2022/11/10 10:41:12;;;;;;;;;;;10.20;81.20;;;-151.14;100.00;62537.16;5092576;28;19927;-81
2022/11/10 10:44:01;;;;;;;;;;;10.20;81.40;;;-151.14;100.00;62537.16;5092098;28;19921;-81
2022/11/10 10:46:48;;;;;;;;;;;10.20;81.30;;;-151.14;100.00;62537.16;5091895;28;19926;-81
2022/11/10 10:49:35;;;;;;;;;;;10.20;81.40;;;-151.14;100.00;62537.16;5074551;28;19920;-81
2022/11/10 10:52:24;;;;;;;;;;;10.20;81.40;;;-151.14;100.00;62537.16;5074242;28;20226;-81
2022/11/10 10:55:12;;;;;;;;;;;10.20;81.40;;;-151.14;100.00;62537.16;5105589;28;19926;-81
2022/11/10 10:58:00;;;;;;;;;;;10.20;81.40;;;-151.14;100.00;62537.16;5094117;28;19926;-81
2022/11/10 11:00:49;;;;;;;;;;;10.20;81.40;;;-151.14;100.00;62537.16;5112553;28;19926;-81
2022/11/10 11:03:41;;;;;;;;;;;10.20;81.50;;;-151.14;100.00;62537.16;5093904;28;19926;-81
2022/11/10 11:06:29;;;;;;;;;;;10.20;81.50;;;-151.14;100.00;62537.16;5093995;28;19926;-81
2022/11/10 11:09:16;;;;;;;;;;;10.20;81.60;;;-151.14;100.00;62537.16;5094037;28;19942;-81
2022/11/10 11:12:04;;;;;;;;;;;10.20;81.60;;;-151.14;100.00;62537.16;5093987;28;19942;-80
2022/11/10 11:14:50;;;;;;;;;;;10.20;81.60;;;-151.14;100.00;62537.16;5093659;28;19920;-81
2022/11/10 11:17:38;;;;;;;;;;;10.20;81.60;;;-151.14;100.00;62537.16;5094007;28;19919;-81
2022/11/10 11:20:36;;;;;;;;;;;10.20;81.70;;;-151.14;100.00;62537.16;5093337;28;19926;-81
2022/11/10 11:23:50;;;;;;;;;;;10.20;81.70;;;-151.14;100.00;62537.16;5111740;28;20227;-81
2022/11/10 11:26:43;;;;;;;;;;;10.20;81.70;;;-151.14;100.00;62537.16;5073666;28;19920;-81
2022/11/10 11:30:00;;;;;;;;;;;10.20;81.90;;;-151.14;100.00;62537.16;5091654;28;19926;-81
2022/11/10 11:33:16;;;;;;;;;;;10.20;81.90;;;-151.14;100.00;62537.16;5091490;28;19928;-81
2022/11/10 11:36:06;;;;;;;;;;;10.20;81.90;;;-151.14;100.00;62537.16;5038573;28;20111;-81
2022/11/10 11:38:54;;;;;;;;;;;10.20;81.90;;;-151.14;100.00;62537.16;5073507;28;20094;-81
2022/11/10 11:41:44;;;;;;;;;;;10.10;81.90;;;-151.14;100.00;62537.16;5073547;28;19928;-81
2022/11/10 11:44:44;;;;;;;;;;;10.10;82.00;;;-151.14;100.00;62537.16;5073247;28;19926;-81
2022/11/10 11:47:42;;;;;;;;;;;10.20;82.00;;;-151.14;100.00;62537.16;5091321;28;20204;-81
2022/11/10 11:50:32;;;;;;;;;;;10.20;81.80;;;-151.14;100.00;62537.16;5073423;28;20212;-81
2022/11/10 11:53:27;;;;;;;;;;;10.20;81.70;;;-151.14;100.00;62537.16;5073122;28;19926;-81
2022/11/10 11:56:20;;;;;;;;;;;10.10;81.70;;;-151.14;100.00;62537.16;5091063;28;19934;-80
2022/11/10 11:59:19;;;;;;;;;;;10.10;81.70;;;-151.14;100.00;62537.16;5091118;28;19927;-81
2022/11/10 12:02:24;;;;;;;;;;;10.10;81.60;;;-151.14;100.00;62537.16;5091277;28;19920;-81
2022/11/10 12:05:15;;;;;;;;;;;10.10;81.80;;;-151.14;100.00;62537.16;5090550;28;19942;-81
2022/11/10 12:08:09;;;;;;;;;;;10.10;81.70;;;-151.14;100.00;62537.16;5072996;28;19926;-81
2022/11/10 12:11:00;;;;;;;;;;;10.10;81.70;;;-151.14;100.00;62537.16;5073133;28;20119;-81
2022/11/10 12:13:52;;;;;;;;;;;10.10;81.70;;;-151.14;100.00;62537.16;5090967;28;19927;-81
2022/11/10 12:16:38;;;;;;;;;;;10.10;81.70;;;-151.14;100.00;62537.16;5072711;28;20119;-81
2022/11/10 12:19:29;;;;;;;;;;;10.10;81.70;;;-151.14;100.00;62537.16;5091008;28;19927;-81
2022/11/10 12:22:21;;;;;;;;;;;10.10;81.90;;;-151.14;100.00;62537.16;5073056;28;19920;-81
2022/11/10 12:25:14;;;;;;;;;;;10.00;81.60;;;-151.14;100.00;62537.16;5072459;28;19927;-81
2022/11/10 12:28:06;;;;;;;;;;;10.10;81.70;;;-151.14;100.00;62537.16;5072901;28;19926;-81
2022/11/10 12:30:53;;;;;;;;;;;10.00;81.60;;;-151.14;100.00;62537.16;5075021;28;19928;-81
2022/11/10 12:33:41;;;;;;;;;;;10.10;81.70;;;-151.14;100.00;62537.16;5094167;28;19921;-81
2022/11/10 12:36:27;;;;;;;;;;;10.10;81.60;;;-151.14;100.00;62537.16;5093888;28;19926;-81
2022/11/10 12:39:17;;;;;;;;;;;10.10;81.60;;;-151.14;100.00;62537.16;5076478;28;19921;-81
2022/11/10 12:42:05;;;;;;;;;;;10.00;81.50;;;-151.14;100.00;62537.16;5094214;28;19926;-81